createdAt,value
2019-05-17T00:00:03.323Z,1009.52
2019-05-17T00:01:03.329Z,1009.55
2019-05-17T00:02:03.308Z,1009.56
2019-05-17T00:03:03.286Z,1009.57
2019-05-17T00:04:03.286Z,1009.57
2019-05-17T00:05:03.275Z,1009.60
2019-05-17T00:06:03.259Z,1009.55
2019-05-17T00:07:03.259Z,1009.54
2019-05-17T00:08:03.237Z,1009.53
2019-05-17T00:09:03.228Z,1009.56
2019-05-17T00:10:03.220Z,1009.53
2019-05-17T00:11:03.202Z,1009.51
2019-05-17T00:12:03.209Z,1009.55
2019-05-17T00:13:03.182Z,1009.52
2019-05-17T00:14:03.172Z,1009.51
2019-05-17T00:15:03.164Z,1009.49
2019-05-17T00:16:03.146Z,1009.49
2019-05-17T00:17:03.198Z,1009.45
2019-05-17T00:18:03.125Z,1009.43
2019-05-17T00:19:03.116Z,1009.45
2019-05-17T00:20:03.107Z,1009.39
2019-05-17T00:21:03.088Z,1009.34
2019-05-17T00:22:03.103Z,1009.34
2019-05-17T00:23:03.071Z,1009.32
2019-05-17T00:24:03.053Z,1009.33
2019-05-17T00:25:03.046Z,1009.34
2019-05-17T00:26:03.034Z,1009.33
2019-05-17T00:27:03.027Z,1009.31
2019-05-17T00:28:03.089Z,1009.30
2019-05-17T00:29:03.000Z,1009.32
2019-05-17T00:30:02.993Z,1009.31
2019-05-17T00:31:02.979Z,1009.24
2019-05-17T00:32:02.983Z,1009.24
2019-05-17T00:33:02.957Z,1009.25
2019-05-17T00:34:02.942Z,1009.28
2019-05-17T00:35:02.932Z,1009.27
2019-05-17T00:36:02.918Z,1009.27
2019-05-17T00:37:03.026Z,1009.28
2019-05-17T00:38:02.904Z,1009.24
2019-05-17T00:39:02.903Z,1009.21
2019-05-17T00:40:02.874Z,1009.25
2019-05-17T00:41:02.863Z,1009.21
2019-05-17T00:42:02.859Z,1009.22
2019-05-17T00:43:02.922Z,1009.17
2019-05-17T00:44:02.830Z,1009.15
2019-05-17T00:45:02.853Z,1009.10
2019-05-17T00:46:02.814Z,1009.12
2019-05-17T00:47:02.801Z,1009.13
2019-05-17T00:48:02.785Z,1009.09
2019-05-17T00:49:02.777Z,1009.07
2019-05-17T00:50:02.761Z,1009.09
2019-05-17T00:51:02.864Z,1009.06
2019-05-17T00:52:02.746Z,1009.17
2019-05-17T00:53:02.843Z,1009.15
2019-05-17T00:54:02.717Z,1009.09
2019-05-17T00:55:02.717Z,1009.11
2019-05-17T00:56:02.698Z,1009.06
2019-05-17T00:57:02.686Z,1009.11
2019-05-17T00:58:02.680Z,1009.10
2019-05-17T00:59:02.745Z,1009.11
2019-05-17T01:00:02.665Z,1009.10
2019-05-17T01:01:02.650Z,1009.13
2019-05-17T01:02:02.632Z,1009.11
2019-05-17T01:03:02.615Z,1009.10
2019-05-17T01:04:02.645Z,1009.07
2019-05-17T01:05:02.593Z,1009.09
2019-05-17T01:06:02.585Z,1009.06
2019-05-17T01:07:02.573Z,1009.08
2019-05-17T01:08:02.561Z,1009.11
2019-05-17T01:09:04.158Z,1009.09
2019-05-17T01:10:02.541Z,1009.12
2019-05-17T01:11:02.529Z,1009.13
2019-05-17T01:12:02.519Z,1009.14
2019-05-17T01:13:02.585Z,1009.13
2019-05-17T01:14:02.496Z,1009.12
2019-05-17T01:15:02.497Z,1009.12
2019-05-17T01:16:02.471Z,1009.14
2019-05-17T01:17:02.461Z,1009.15
2019-05-17T01:18:02.458Z,1009.11
2019-05-17T01:19:02.446Z,1009.09
2019-05-17T01:20:02.486Z,1009.13
2019-05-17T01:21:02.430Z,1009.11
2019-05-17T01:22:02.410Z,1009.09
2019-05-17T01:23:02.392Z,1009.16
2019-05-17T01:24:02.491Z,1009.16
2019-05-17T01:25:02.375Z,1009.13
2019-05-17T01:26:02.363Z,1009.10
2019-05-17T01:27:02.353Z,1009.12
2019-05-17T01:28:02.351Z,1009.14
2019-05-17T01:29:02.329Z,1009.13
2019-05-17T01:30:02.399Z,1009.17
2019-05-17T01:31:02.308Z,1009.14
2019-05-17T01:32:02.293Z,1009.12
2019-05-17T01:33:02.285Z,1009.10
2019-05-17T01:34:02.271Z,1009.10
2019-05-17T01:35:02.306Z,1009.15
2019-05-17T01:36:02.251Z,1009.14
2019-05-17T01:37:02.242Z,1009.13
2019-05-17T01:38:02.229Z,1009.12
2019-05-17T01:39:14.316Z,1009.12
2019-05-17T01:40:03.285Z,1009.12
2019-05-17T01:41:02.199Z,1009.10
2019-05-17T01:42:02.188Z,1009.08
2019-05-17T01:43:02.191Z,1009.09
2019-05-17T01:44:02.199Z,1009.07
2019-05-17T01:45:02.149Z,1009.05
2019-05-17T01:46:02.237Z,1009.08
2019-05-17T01:47:02.131Z,1009.04
2019-05-17T01:48:02.167Z,1009.05
2019-05-17T01:49:02.104Z,1009.01
2019-05-17T01:50:02.271Z,1009.02
2019-05-17T01:51:02.088Z,1008.94
2019-05-17T01:52:02.302Z,1008.98
2019-05-17T01:53:02.060Z,1008.98
2019-05-17T01:54:02.056Z,1009.01
2019-05-17T01:55:02.043Z,1009.01
2019-05-17T01:56:02.061Z,1008.96
2019-05-17T01:57:02.025Z,1008.94
2019-05-17T01:58:02.011Z,1008.95
2019-05-17T01:59:01.998Z,1008.98
2019-05-17T02:00:02.000Z,1008.98
2019-05-17T02:01:01.977Z,1008.95
2019-05-17T02:02:02.026Z,1008.96
2019-05-17T02:03:01.979Z,1008.96
2019-05-17T02:04:01.938Z,1008.93
2019-05-17T02:05:01.941Z,1008.92
2019-05-17T02:06:01.914Z,1008.95
2019-05-17T02:07:01.985Z,1008.97
2019-05-17T02:08:01.974Z,1008.97
2019-05-17T02:09:01.880Z,1008.94
2019-05-17T02:10:01.949Z,1008.93
2019-05-17T02:11:01.868Z,1008.91
2019-05-17T02:12:01.876Z,1008.91
2019-05-17T02:13:02.459Z,1008.87
2019-05-17T02:14:01.834Z,1008.90
2019-05-17T02:15:01.831Z,1008.90
2019-05-17T02:16:01.810Z,1008.84
2019-05-17T02:17:01.804Z,1008.86
2019-05-17T02:18:01.784Z,1008.89
2019-05-17T02:19:01.878Z,1008.86
2019-05-17T02:20:01.820Z,1008.87
2019-05-17T02:21:01.749Z,1008.87
2019-05-17T02:22:01.741Z,1008.85
2019-05-17T02:23:01.736Z,1008.86
2019-05-17T02:24:01.749Z,1008.86
2019-05-17T02:25:01.955Z,1008.89
2019-05-17T02:26:01.691Z,1008.87
2019-05-17T02:27:01.689Z,1008.86
2019-05-17T02:28:01.917Z,1008.85
2019-05-17T02:29:01.665Z,1008.84
2019-05-17T02:30:02.850Z,1008.84
2019-05-17T02:31:03.428Z,1008.89
2019-05-17T02:32:03.893Z,1008.84
2019-05-17T02:33:03.762Z,1008.85
2019-05-17T02:34:03.088Z,1008.86
2019-05-17T02:35:03.352Z,1008.87
2019-05-17T02:36:02.685Z,1008.89
2019-05-17T02:37:02.946Z,1008.93
2019-05-17T02:38:02.955Z,1008.89
2019-05-17T02:39:03.595Z,1008.93
2019-05-17T02:40:04.594Z,1008.96
2019-05-17T02:41:03.474Z,1008.92
2019-05-17T02:42:02.811Z,1008.93
2019-05-17T02:43:03.078Z,1008.91
2019-05-17T02:44:02.342Z,1008.92
2019-05-17T02:45:02.990Z,1008.89
2019-05-17T02:46:03.678Z,1008.92
2019-05-17T02:47:03.249Z,1008.87
2019-05-17T02:48:03.879Z,1008.86
2019-05-17T02:49:03.138Z,1008.84
2019-05-17T02:50:05.637Z,1008.87
2019-05-17T02:51:03.427Z,1008.87
2019-05-17T02:52:03.166Z,1008.85
2019-05-17T02:53:04.304Z,1008.85
2019-05-17T02:54:04.056Z,1008.86
2019-05-17T02:55:04.002Z,1008.83
2019-05-17T02:56:03.175Z,1008.84
2019-05-17T02:57:03.072Z,1008.85
2019-05-17T02:58:03.069Z,1008.81
2019-05-17T02:59:03.614Z,1008.85
2019-05-17T03:00:04.426Z,1008.84
2019-05-17T03:01:03.558Z,1008.86
2019-05-17T03:02:03.402Z,1008.89
2019-05-17T03:03:03.424Z,1008.84
2019-05-17T03:04:03.796Z,1008.88
2019-05-17T03:05:03.970Z,1008.82
2019-05-17T03:06:03.045Z,1008.86
2019-05-17T03:07:03.827Z,1008.86
2019-05-17T03:08:03.948Z,1008.84
2019-05-17T03:09:03.396Z,1008.86
2019-05-17T03:10:16.975Z,1008.86
2019-05-17T03:11:03.321Z,1008.85
2019-05-17T03:12:03.275Z,1008.87
2019-05-17T03:13:04.117Z,1008.83
2019-05-17T03:14:04.053Z,1008.85
2019-05-17T03:15:04.087Z,1008.86
2019-05-17T03:16:03.487Z,1008.89
2019-05-17T03:17:03.308Z,1008.90
2019-05-17T03:18:03.668Z,1008.90
2019-05-17T03:19:04.091Z,1008.91
2019-05-17T03:20:04.049Z,1008.92
2019-05-17T03:21:03.854Z,1008.96
2019-05-17T03:22:04.442Z,1008.89
2019-05-17T03:23:03.859Z,1008.91
2019-05-17T03:24:03.167Z,1008.97
2019-05-17T03:25:03.443Z,1008.96
2019-05-17T03:26:03.746Z,1008.97
2019-05-17T03:27:02.998Z,1008.92
2019-05-17T03:28:02.884Z,1008.96
2019-05-17T03:29:03.439Z,1008.96
2019-05-17T03:30:04.119Z,1008.94
2019-05-17T03:31:06.874Z,1008.88
2019-05-17T03:32:07.985Z,1008.94
2019-05-17T03:33:07.483Z,1008.87
2019-05-17T03:34:06.288Z,1008.88
2019-05-17T03:35:06.960Z,1008.88
2019-05-17T03:36:06.496Z,1008.96
2019-05-17T03:37:06.089Z,1008.94
2019-05-17T03:38:03.758Z,1008.91
2019-05-17T03:39:03.101Z,1008.91
2019-05-17T03:40:02.939Z,1008.88
2019-05-17T03:41:14.067Z,1008.90
2019-05-17T03:42:02.692Z,1008.94
2019-05-17T03:43:02.795Z,1008.95
2019-05-17T03:44:03.231Z,1008.98
2019-05-17T03:45:02.903Z,1008.90
2019-05-17T03:46:02.890Z,1008.88
2019-05-17T03:47:02.387Z,1008.90
2019-05-17T03:48:04.247Z,1008.89
2019-05-17T03:49:03.480Z,1008.89
2019-05-17T03:50:03.297Z,1008.92
2019-05-17T03:51:02.675Z,1008.94
2019-05-17T03:52:02.746Z,1008.91
2019-05-17T03:53:02.378Z,1008.88
2019-05-17T03:54:02.399Z,1008.90
2019-05-17T03:55:03.957Z,1008.92
2019-05-17T03:56:02.931Z,1008.91
2019-05-17T03:57:02.889Z,1008.91
2019-05-17T03:58:03.099Z,1008.93
2019-05-17T03:59:03.778Z,1008.91
2019-05-17T04:00:03.873Z,1008.89
2019-05-17T04:01:03.732Z,1008.89
2019-05-17T04:02:03.357Z,1008.88
2019-05-17T04:03:03.009Z,1008.89
2019-05-17T04:04:02.945Z,1008.87
2019-05-17T04:05:03.941Z,1008.88
2019-05-17T04:06:03.589Z,1008.86
2019-05-17T04:07:03.331Z,1008.85
2019-05-17T04:08:03.740Z,1008.83
2019-05-17T04:09:03.800Z,1008.86
2019-05-17T04:10:04.168Z,1008.82
2019-05-17T04:11:17.581Z,1008.85
2019-05-17T04:12:02.832Z,1008.84
2019-05-17T04:13:03.707Z,1008.81
2019-05-17T04:14:03.051Z,1008.81
2019-05-17T04:15:08.505Z,1008.81
2019-05-17T04:16:05.731Z,1008.79
2019-05-17T04:17:03.042Z,1008.79
2019-05-17T04:18:03.738Z,1008.77
2019-05-17T04:19:03.199Z,1008.73
2019-05-17T04:20:03.452Z,1008.80
2019-05-17T04:21:03.239Z,1008.78
2019-05-17T04:22:03.525Z,1008.81
2019-05-17T04:23:03.407Z,1008.80
2019-05-17T04:24:03.272Z,1008.78
2019-05-17T04:25:02.966Z,1008.78
2019-05-17T04:26:03.813Z,1008.79
2019-05-17T04:27:03.396Z,1008.79
2019-05-17T04:28:02.787Z,1008.76
2019-05-17T04:29:03.300Z,1008.78
2019-05-17T04:30:03.299Z,1008.76
2019-05-17T04:31:02.790Z,1008.72
2019-05-17T04:32:03.575Z,1008.70
2019-05-17T04:33:03.251Z,1008.72
2019-05-17T04:34:02.964Z,1008.69
2019-05-17T04:35:03.493Z,1008.70
2019-05-17T04:36:02.683Z,1008.71
2019-05-17T04:37:00.244Z,1008.72
2019-05-17T04:38:03.669Z,1008.69
2019-05-17T04:39:02.501Z,1008.71
2019-05-17T04:40:03.615Z,1008.76
2019-05-17T04:41:03.313Z,1008.73
2019-05-17T04:42:03.409Z,1008.73
2019-05-17T04:43:02.967Z,1008.69
2019-05-17T04:44:02.737Z,1008.64
2019-05-17T04:45:03.340Z,1008.61
2019-05-17T04:46:02.760Z,1008.61
2019-05-17T04:47:03.146Z,1008.64
2019-05-17T04:48:03.658Z,1008.62
2019-05-17T04:49:02.792Z,1008.65
2019-05-17T04:50:03.558Z,1008.64
2019-05-17T04:51:02.604Z,1008.61
2019-05-17T04:52:03.105Z,1008.60
2019-05-17T04:53:02.678Z,1008.65
2019-05-17T04:54:02.987Z,1008.59
2019-05-17T04:55:03.693Z,1008.60
2019-05-17T04:56:02.804Z,1008.61
2019-05-17T04:57:02.705Z,1008.64
2019-05-17T04:58:03.458Z,1008.61
2019-05-17T04:59:02.970Z,1008.58
2019-05-17T05:00:03.899Z,1008.58
2019-05-17T05:01:03.651Z,1008.62
2019-05-17T05:02:03.070Z,1008.60
2019-05-17T05:03:03.432Z,1008.57
2019-05-17T05:04:03.070Z,1008.54
2019-05-17T05:05:03.132Z,1008.59
2019-05-17T05:06:03.052Z,1008.56
2019-05-17T05:07:02.901Z,1008.57
2019-05-17T05:08:02.685Z,1008.55
2019-05-17T05:09:02.621Z,1008.55
2019-05-17T05:10:02.952Z,1008.52
2019-05-17T05:10:59.880Z,1008.54
2019-05-17T05:12:05.421Z,1008.58
2019-05-17T05:13:03.156Z,1008.54
2019-05-17T05:14:02.435Z,1008.49
2019-05-17T05:15:02.696Z,1008.45
2019-05-17T05:16:02.739Z,1008.47
2019-05-17T05:17:02.389Z,1008.46
2019-05-17T05:18:02.395Z,1008.44
2019-05-17T05:19:02.643Z,1008.45
2019-05-17T05:20:02.503Z,1008.45
2019-05-17T05:20:59.758Z,1008.43
2019-05-17T05:22:04.025Z,1008.44
2019-05-17T05:23:02.569Z,1008.47
2019-05-17T05:23:59.827Z,1008.49
2019-05-17T05:25:01.972Z,1008.46
2019-05-17T05:25:59.710Z,1008.49
2019-05-17T05:26:59.688Z,1008.50
2019-05-17T05:27:59.685Z,1008.47
2019-05-17T05:29:02.203Z,1008.47
2019-05-17T05:29:59.765Z,1008.47
2019-05-17T05:31:01.937Z,1008.47
2019-05-17T05:32:02.429Z,1008.44
2019-05-17T05:33:01.856Z,1008.44
2019-05-17T05:34:01.660Z,1008.44
2019-05-17T05:34:59.607Z,1008.40
2019-05-17T05:36:02.038Z,1008.39
2019-05-17T05:37:01.930Z,1008.40
2019-05-17T05:38:02.007Z,1008.37
2019-05-17T05:38:59.555Z,1008.39
2019-05-17T05:40:02.085Z,1008.42
2019-05-17T05:41:01.595Z,1008.38
2019-05-17T05:42:07.948Z,1008.35
2019-05-17T05:43:02.367Z,1008.38
2019-05-17T05:44:01.656Z,1008.36
2019-05-17T05:44:59.492Z,1008.37
2019-05-17T05:45:59.587Z,1008.34
2019-05-17T05:46:59.468Z,1008.32
2019-05-17T05:48:01.643Z,1008.30
2019-05-17T05:49:01.566Z,1008.33
2019-05-17T05:50:01.455Z,1008.35
2019-05-17T05:51:02.579Z,1008.33
2019-05-17T05:52:01.796Z,1008.34
2019-05-17T05:53:01.789Z,1008.33
2019-05-17T05:54:01.548Z,1008.32
2019-05-17T05:55:01.435Z,1008.37
2019-05-17T05:55:59.376Z,1008.33
2019-05-17T05:57:02.093Z,1008.34
2019-05-17T05:57:59.348Z,1008.35
2019-05-17T05:58:59.339Z,1008.33
2019-05-17T06:00:02.019Z,1008.34
2019-05-17T06:01:02.053Z,1008.35
2019-05-17T06:02:01.618Z,1008.34
2019-05-17T06:02:59.349Z,1008.33
2019-05-17T06:03:59.276Z,1008.35
2019-05-17T06:05:01.743Z,1008.27
2019-05-17T06:06:01.574Z,1008.28
2019-05-17T06:06:59.310Z,1008.29
2019-05-17T06:07:59.284Z,1008.32
2019-05-17T06:08:59.226Z,1008.33
2019-05-17T06:09:59.212Z,1008.33
2019-05-17T06:11:01.940Z,1008.28
2019-05-17T06:11:59.191Z,1008.28
2019-05-17T06:12:59.239Z,1008.28
2019-05-17T06:14:01.448Z,1008.30
2019-05-17T06:14:59.296Z,1008.31
2019-05-17T06:15:59.237Z,1008.23
2019-05-17T06:16:59.158Z,1008.27
2019-05-17T06:17:59.122Z,1008.31
2019-05-17T06:18:59.112Z,1008.32
2019-05-17T06:19:59.105Z,1008.32
2019-05-17T06:20:59.189Z,1008.35
2019-05-17T06:21:59.176Z,1008.31
2019-05-17T06:22:59.225Z,1008.27
2019-05-17T06:23:59.059Z,1008.23
2019-05-17T06:24:59.090Z,1008.25
2019-05-17T06:25:59.036Z,1008.21
2019-05-17T06:26:59.099Z,1008.25
2019-05-17T06:28:01.416Z,1008.24
2019-05-17T06:28:59.013Z,1008.23
2019-05-17T06:30:01.347Z,1008.23
2019-05-17T06:30:58.985Z,1008.23
2019-05-17T06:31:58.965Z,1008.20
2019-05-17T06:32:58.952Z,1008.19
2019-05-17T06:33:59.003Z,1008.21
2019-05-17T06:34:58.936Z,1008.13
2019-05-17T06:35:58.925Z,1008.14
2019-05-17T06:36:58.920Z,1008.16
2019-05-17T06:37:58.901Z,1008.19
2019-05-17T06:38:58.969Z,1008.12
2019-05-17T06:39:58.889Z,1008.19
2019-05-17T06:40:58.870Z,1008.20
2019-05-17T06:41:58.859Z,1008.14
2019-05-17T06:42:58.849Z,1008.11
2019-05-17T06:43:58.886Z,1008.12
2019-05-17T06:44:58.830Z,1008.08
2019-05-17T06:45:58.812Z,1008.11
2019-05-17T06:46:58.810Z,1008.10
2019-05-17T06:47:58.793Z,1008.14
2019-05-17T06:48:58.789Z,1008.07
2019-05-17T06:49:58.888Z,1008.08
2019-05-17T06:50:58.755Z,1008.09
2019-05-17T06:51:58.743Z,1008.13
2019-05-17T06:52:58.738Z,1008.11
2019-05-17T06:53:58.729Z,1008.14
2019-05-17T06:54:58.713Z,1008.04
2019-05-17T06:55:58.780Z,1008.11
2019-05-17T06:56:58.692Z,1008.11
2019-05-17T06:57:58.682Z,1008.10
2019-05-17T06:58:58.664Z,1008.09
2019-05-17T06:59:59.335Z,1008.14
2019-05-17T07:00:59.948Z,1008.13
2019-05-17T07:01:59.761Z,1008.14
2019-05-17T07:03:00.533Z,1008.11
2019-05-17T07:04:00.354Z,1008.13
2019-05-17T07:04:58.605Z,1008.10
2019-05-17T07:05:59.635Z,1008.09
2019-05-17T07:07:00.112Z,1008.07
2019-05-17T07:08:00.315Z,1008.08
2019-05-17T07:09:00.843Z,1008.15
2019-05-17T07:10:00.507Z,1008.11
2019-05-17T07:10:59.720Z,1008.10
2019-05-17T07:11:59.612Z,1008.15
2019-05-17T07:13:01.434Z,1008.13
2019-05-17T07:13:59.760Z,1008.16
2019-05-17T07:15:00.936Z,1008.15
2019-05-17T07:15:59.715Z,1008.08
2019-05-17T07:16:59.589Z,1008.14
2019-05-17T07:17:59.939Z,1008.11
2019-05-17T07:18:59.747Z,1008.08
2019-05-17T07:19:59.685Z,1008.10
2019-05-17T07:21:02.701Z,1008.08
2019-05-17T07:21:59.996Z,1008.08
2019-05-17T07:23:00.358Z,1008.12
2019-05-17T07:23:59.424Z,1008.07
2019-05-17T07:24:59.794Z,1008.12
2019-05-17T07:25:59.655Z,1008.07
2019-05-17T07:26:59.198Z,1008.05
2019-05-17T07:28:00.473Z,1008.03
2019-05-17T07:28:59.292Z,1008.00
2019-05-17T07:29:59.263Z,1008.04
2019-05-17T07:30:59.727Z,1008.05
2019-05-17T07:32:00.355Z,1008.02
2019-05-17T07:33:00.363Z,1007.97
2019-05-17T07:33:59.843Z,1007.95
2019-05-17T07:35:00.093Z,1008.02
2019-05-17T07:35:59.509Z,1007.94
2019-05-17T07:36:59.727Z,1007.89
2019-05-17T07:37:59.545Z,1007.89
2019-05-17T07:39:00.623Z,1007.90
2019-05-17T07:40:04.528Z,1007.90
2019-05-17T07:40:59.658Z,1007.88
2019-05-17T07:42:00.000Z,1007.84
2019-05-17T07:43:09.750Z,1007.86
2019-05-17T07:44:00.443Z,1007.90
2019-05-17T07:45:00.314Z,1007.92
2019-05-17T07:46:00.307Z,1007.87
2019-05-17T07:47:00.096Z,1007.88
2019-05-17T07:48:00.101Z,1007.88
2019-05-17T07:49:00.378Z,1007.87
2019-05-17T07:50:00.724Z,1007.91
2019-05-17T07:50:59.355Z,1007.91
2019-05-17T07:51:58.092Z,1007.87
2019-05-17T07:53:00.498Z,1007.89
2019-05-17T07:53:59.710Z,1007.86
2019-05-17T07:55:02.407Z,1007.79
2019-05-17T07:55:59.704Z,1007.81
2019-05-17T07:57:00.281Z,1007.74
2019-05-17T07:58:00.113Z,1007.78
2019-05-17T07:58:59.924Z,1007.66
2019-05-17T07:59:59.941Z,1007.73
2019-05-17T08:00:57.987Z,1007.72
2019-05-17T08:01:59.718Z,1007.71
2019-05-17T08:02:59.984Z,1007.72
2019-05-17T08:04:00.393Z,1007.69
2019-05-17T08:05:00.245Z,1007.69
2019-05-17T08:06:00.069Z,1007.70
2019-05-17T08:06:59.813Z,1007.65
2019-05-17T08:08:00.013Z,1007.58
2019-05-17T08:09:01.274Z,1007.57
2019-05-17T08:10:00.204Z,1007.62
2019-05-17T08:11:00.443Z,1007.57
2019-05-17T08:11:59.711Z,1007.55
2019-05-17T08:12:59.937Z,1007.48
2019-05-17T08:13:59.748Z,1007.48
2019-05-17T08:14:59.823Z,1007.45
2019-05-17T08:15:59.530Z,1007.41
2019-05-17T08:16:59.903Z,1007.38
2019-05-17T08:17:59.396Z,1007.32
2019-05-17T08:19:00.166Z,1007.31
2019-05-17T08:20:00.314Z,1007.22
2019-05-17T08:20:59.697Z,1007.27
2019-05-17T08:21:59.710Z,1007.20
2019-05-17T08:22:59.552Z,1007.22
2019-05-17T08:23:59.883Z,1007.26
2019-05-17T08:24:59.843Z,1007.24
2019-05-17T08:26:00.450Z,1007.20
2019-05-17T08:26:59.616Z,1007.19
2019-05-17T08:27:59.486Z,1007.22
2019-05-17T08:28:57.682Z,1007.13
2019-05-17T08:29:59.736Z,1007.15
2019-05-17T08:30:57.742Z,1007.14
2019-05-17T08:31:57.653Z,1007.16
2019-05-17T08:32:57.649Z,1007.08
2019-05-17T08:33:59.888Z,1007.14
2019-05-17T08:35:00.139Z,1007.10
2019-05-17T08:35:59.637Z,1007.13
2019-05-17T08:36:57.676Z,1007.10
2019-05-17T08:38:00.331Z,1007.15
2019-05-17T08:38:59.543Z,1007.15
2019-05-17T08:39:59.866Z,1007.21
2019-05-17T08:41:00.353Z,1007.27
2019-05-17T08:41:57.546Z,1007.33
2019-05-17T08:43:00.003Z,1007.38
2019-05-17T08:43:57.519Z,1007.43
2019-05-17T08:44:57.513Z,1007.51
2019-05-17T08:45:59.338Z,1007.52
2019-05-17T08:46:59.387Z,1007.55
2019-05-17T08:47:57.556Z,1007.61
2019-05-17T08:48:57.468Z,1007.61
2019-05-17T08:50:00.207Z,1007.61
2019-05-17T08:50:59.954Z,1007.59
2019-05-17T08:51:59.402Z,1007.53
2019-05-17T08:52:59.820Z,1007.58
2019-05-17T08:53:59.849Z,1007.57
2019-05-17T08:54:57.482Z,1007.56
2019-05-17T08:55:57.396Z,1007.53
2019-05-17T08:56:57.424Z,1007.53
2019-05-17T08:57:57.368Z,1007.55
2019-05-17T08:58:57.362Z,1007.57
2019-05-17T08:59:57.428Z,1007.60
2019-05-17T09:01:00.015Z,1007.63
2019-05-17T09:01:59.935Z,1007.62
2019-05-17T09:02:59.942Z,1007.68
2019-05-17T09:03:59.667Z,1007.61
2019-05-17T09:04:57.293Z,1007.66
2019-05-17T09:06:01.489Z,1007.60
2019-05-17T09:07:00.043Z,1007.58
2019-05-17T09:07:57.344Z,1007.60
2019-05-17T09:08:57.261Z,1007.62
2019-05-17T09:09:57.248Z,1007.62
2019-05-17T09:10:57.237Z,1007.64
2019-05-17T09:11:59.506Z,1007.63
2019-05-17T09:12:59.547Z,1007.66
2019-05-17T09:14:01.076Z,1007.57
2019-05-17T09:14:57.189Z,1007.40
2019-05-17T09:15:57.184Z,1007.60
2019-05-17T09:17:00.226Z,1007.71
2019-05-17T09:17:57.268Z,1007.68
2019-05-17T09:18:57.147Z,1007.71
2019-05-17T09:19:57.144Z,1007.66
2019-05-17T09:20:57.128Z,1007.64
2019-05-17T09:21:59.679Z,1007.63
2019-05-17T09:22:57.105Z,1007.66
2019-05-17T09:23:59.565Z,1007.62
2019-05-17T09:24:59.460Z,1007.65
2019-05-17T09:25:59.361Z,1007.66
2019-05-17T09:26:57.075Z,1007.64
2019-05-17T09:27:57.057Z,1007.66
2019-05-17T09:28:57.129Z,1007.71
2019-05-17T09:29:57.042Z,1007.69
2019-05-17T09:30:57.036Z,1007.63
2019-05-17T09:31:57.017Z,1007.63
2019-05-17T09:32:57.103Z,1007.69
2019-05-17T09:33:57.107Z,1007.64
2019-05-17T09:34:56.994Z,1007.64
2019-05-17T09:35:56.977Z,1007.60
2019-05-17T09:36:56.973Z,1007.66
2019-05-17T09:37:56.963Z,1007.60
2019-05-17T09:38:56.946Z,1007.60
2019-05-17T09:39:57.019Z,1007.62
2019-05-17T09:40:56.932Z,1007.39
2019-05-17T09:41:56.926Z,1007.03
2019-05-17T09:42:56.907Z,1006.93
2019-05-17T09:44:09.632Z,1007.00
2019-05-17T09:45:00.171Z,1007.03
2019-05-17T09:45:56.883Z,1007.21
2019-05-17T09:46:59.350Z,1007.38
2019-05-17T09:47:56.865Z,1007.34
2019-05-17T09:48:56.847Z,1006.95
2019-05-17T09:49:56.866Z,1007.44
2019-05-17T09:50:56.830Z,1007.54
2019-05-17T09:51:56.824Z,1007.50
2019-05-17T09:52:56.803Z,1007.53
2019-05-17T09:53:56.794Z,1007.54
2019-05-17T09:54:56.867Z,1007.56
2019-05-17T09:55:56.780Z,1007.54
2019-05-17T09:56:56.848Z,1007.51
2019-05-17T09:57:56.854Z,1007.49
2019-05-17T09:58:56.749Z,1007.44
2019-05-17T09:59:56.739Z,1007.39
2019-05-17T10:00:56.738Z,1007.39
2019-05-17T10:01:56.720Z,1007.41
2019-05-17T10:02:56.714Z,1007.41
2019-05-17T10:03:56.780Z,1007.36
2019-05-17T10:04:56.684Z,1006.98
2019-05-17T10:05:56.686Z,1007.35
2019-05-17T10:06:56.748Z,1007.37
2019-05-17T10:07:56.659Z,1007.36
2019-05-17T10:08:56.650Z,1007.39
2019-05-17T10:09:56.664Z,1007.36
2019-05-17T10:11:08.106Z,1007.38
2019-05-17T10:11:59.894Z,1007.39
2019-05-17T10:12:56.611Z,1007.38
2019-05-17T10:13:58.947Z,1007.39
2019-05-17T10:15:04.661Z,1007.38
2019-05-17T10:15:56.582Z,1007.41
2019-05-17T10:16:56.652Z,1007.46
2019-05-17T10:17:56.686Z,1007.38
2019-05-17T10:18:56.548Z,1007.39
2019-05-17T10:19:56.544Z,1007.37
2019-05-17T10:20:56.531Z,1007.42
2019-05-17T10:21:56.602Z,1007.38
2019-05-17T10:22:56.511Z,1007.40
2019-05-17T10:23:56.510Z,1006.84
2019-05-17T10:24:56.497Z,1006.81
2019-05-17T10:25:56.481Z,1006.71
2019-05-17T10:26:56.553Z,1006.73
2019-05-17T10:27:56.470Z,1006.73
2019-05-17T10:28:56.560Z,1007.02
2019-05-17T10:29:56.441Z,1007.19
2019-05-17T10:30:56.442Z,1007.19
2019-05-17T10:31:56.419Z,1007.24
2019-05-17T10:32:56.455Z,1007.25
2019-05-17T10:33:58.326Z,1007.28
2019-05-17T10:34:56.489Z,1007.17
2019-05-17T10:35:56.387Z,1007.23
2019-05-17T10:36:56.373Z,1007.19
2019-05-17T10:37:56.364Z,1006.77
2019-05-17T10:38:56.353Z,1006.72
2019-05-17T10:39:56.345Z,1006.68
2019-05-17T10:40:56.410Z,1006.74
2019-05-17T10:41:56.324Z,1006.69
2019-05-17T10:42:56.317Z,1006.67
2019-05-17T10:43:56.302Z,1006.65
2019-05-17T10:44:56.369Z,1006.73
2019-05-17T10:45:56.283Z,1006.64
2019-05-17T10:46:56.264Z,1006.70
2019-05-17T10:47:56.337Z,1006.82
2019-05-17T10:48:56.249Z,1006.69
2019-05-17T10:49:56.268Z,1006.70
2019-05-17T10:50:56.304Z,1006.73
2019-05-17T10:51:56.212Z,1006.67
2019-05-17T10:52:56.281Z,1006.72
2019-05-17T10:53:56.198Z,1006.88
2019-05-17T10:54:56.260Z,1006.73
2019-05-17T10:55:56.250Z,1006.71
2019-05-17T10:56:56.175Z,1006.70
2019-05-17T10:57:56.149Z,1006.73
2019-05-17T10:58:56.144Z,1006.72
2019-05-17T10:59:56.237Z,1006.74
2019-05-17T11:00:56.195Z,1006.68
2019-05-17T11:01:56.131Z,1006.72
2019-05-17T11:02:56.091Z,1006.72
2019-05-17T11:03:56.083Z,1006.71
2019-05-17T11:04:56.077Z,1006.70
2019-05-17T11:05:56.094Z,1006.73
2019-05-17T11:06:56.102Z,1006.68
2019-05-17T11:07:56.037Z,1006.68
2019-05-17T11:08:56.030Z,1006.70
2019-05-17T11:09:56.123Z,1006.66
2019-05-17T11:10:56.005Z,1006.75
2019-05-17T11:11:55.995Z,1006.70
2019-05-17T11:12:55.988Z,1006.73
2019-05-17T11:13:55.977Z,1006.72
2019-05-17T11:15:10.410Z,1006.68
2019-05-17T11:15:56.955Z,1006.65
2019-05-17T11:16:55.995Z,1006.62
2019-05-17T11:17:55.931Z,1006.64
2019-05-17T11:18:55.919Z,1006.61
2019-05-17T11:19:55.911Z,1006.67
2019-05-17T11:20:55.904Z,1006.70
2019-05-17T11:21:55.997Z,1006.63
2019-05-17T11:22:55.882Z,1006.67
2019-05-17T11:23:55.869Z,1006.66
2019-05-17T11:24:55.906Z,1006.63
2019-05-17T11:25:55.956Z,1006.62
2019-05-17T11:26:55.850Z,1006.68
2019-05-17T11:27:55.822Z,1006.69
2019-05-17T11:28:55.823Z,1006.69
2019-05-17T11:29:55.798Z,1006.66
2019-05-17T11:30:55.793Z,1006.65
2019-05-17T11:31:55.860Z,1006.65
2019-05-17T11:32:55.773Z,1006.65
2019-05-17T11:33:55.760Z,1006.66
2019-05-17T11:34:55.746Z,1006.67
2019-05-17T11:35:55.816Z,1006.61
2019-05-17T11:36:55.736Z,1006.64
2019-05-17T11:37:55.722Z,1006.62
2019-05-17T11:38:55.783Z,1006.63
2019-05-17T11:39:55.695Z,1006.61
2019-05-17T11:40:55.687Z,1006.62
2019-05-17T11:41:55.673Z,1006.62
2019-05-17T11:42:55.659Z,1006.62
2019-05-17T11:43:55.647Z,1006.59
2019-05-17T11:44:55.720Z,1006.59
2019-05-17T11:45:55.625Z,1006.58
2019-05-17T11:46:55.620Z,1006.58
2019-05-17T11:47:55.601Z,1006.59
2019-05-17T11:48:55.672Z,1006.63
2019-05-17T11:49:55.603Z,1006.57
2019-05-17T11:50:55.569Z,1006.60
2019-05-17T11:51:55.561Z,1006.56
2019-05-17T11:52:55.558Z,1006.60
2019-05-17T11:53:55.565Z,1006.57
2019-05-17T11:54:55.526Z,1006.57
2019-05-17T11:55:55.513Z,1006.60
2019-05-17T11:56:55.509Z,1006.54
2019-05-17T11:57:55.497Z,1006.55
2019-05-17T11:58:55.561Z,1006.54
2019-05-17T11:59:55.469Z,1006.48
2019-05-17T12:00:55.467Z,1006.48
2019-05-17T12:01:55.648Z,1006.62
2019-05-17T12:02:55.440Z,1006.61
2019-05-17T12:03:55.431Z,1006.58
2019-05-17T12:04:55.417Z,1006.58